createdAt,value
2023-04-24T00:00:25.034Z,87.49
2023-04-24T00:02:42.480Z,86.92
2023-04-24T00:04:59.606Z,87.09
2023-04-24T00:07:16.818Z,88.01
2023-04-24T00:09:33.872Z,87.48
2023-04-24T00:11:51.169Z,88.14
2023-04-24T00:14:08.134Z,88.20
2023-04-24T00:16:25.567Z,87.80
2023-04-24T00:18:42.587Z,87.91
2023-04-24T00:20:59.991Z,88.07
2023-04-24T00:23:17.271Z,89.04
2023-04-24T00:25:34.281Z,87.57
2023-04-24T00:27:51.421Z,88.22
2023-04-24T00:30:08.543Z,88.19
2023-04-24T00:32:27.987Z,88.76
2023-04-24T00:34:45.137Z,88.17
2023-04-24T00:37:03.252Z,87.67
2023-04-24T00:39:20.312Z,88.89
2023-04-24T00:41:37.573Z,89.34
2023-04-24T00:43:54.917Z,87.37
2023-04-24T00:46:12.226Z,86.06
2023-04-24T00:48:29.496Z,86.04
2023-04-24T00:50:47.822Z,85.51
2023-04-24T00:53:04.965Z,85.27
2023-04-24T00:55:22.337Z,84.59
2023-04-24T00:57:39.257Z,83.59
2023-04-24T00:59:56.332Z,83.26
2023-04-24T01:02:14.653Z,84.21
2023-04-24T01:04:32.185Z,84.91
2023-04-24T01:06:49.566Z,84.47
2023-04-24T01:09:08.003Z,84.58
2023-04-24T01:11:25.289Z,84.99
2023-04-24T01:13:42.231Z,84.20
2023-04-24T01:15:59.249Z,83.93
2023-04-24T01:18:16.334Z,83.65
2023-04-24T01:20:34.630Z,83.62
2023-04-24T01:22:51.648Z,84.17
2023-04-24T01:25:08.886Z,84.23
2023-04-24T01:27:26.140Z,84.83
2023-04-24T01:29:43.360Z,86.05
2023-04-24T01:32:00.924Z,86.03
2023-04-24T01:34:18.005Z,85.76
2023-04-24T01:36:36.057Z,85.48
2023-04-24T01:38:53.130Z,85.01
2023-04-24T01:41:10.483Z,85.35
2023-04-24T01:43:27.498Z,85.30
2023-04-24T01:45:44.411Z,86.37
2023-04-24T01:48:01.746Z,86.47
2023-04-24T01:50:18.901Z,85.66
2023-04-24T01:52:35.905Z,87.11
2023-04-24T01:54:53.199Z,87.81
2023-04-24T01:57:10.170Z,88.01
2023-04-24T01:59:27.294Z,87.77
2023-04-24T02:01:44.216Z,87.79
2023-04-24T02:04:01.708Z,87.25
2023-04-24T02:06:19.157Z,88.78
2023-04-24T02:08:37.121Z,88.53
2023-04-24T02:10:54.746Z,89.51
2023-04-24T02:13:12.000Z,88.19
2023-04-24T02:15:28.988Z,89.13
2023-04-24T02:17:47.287Z,87.24
2023-04-24T02:20:04.597Z,88.02
2023-04-24T02:22:21.639Z,88.92
2023-04-24T02:24:39.005Z,88.98
2023-04-24T02:26:56.127Z,88.90
2023-04-24T02:29:13.395Z,88.46
2023-04-24T02:31:30.692Z,86.70
2023-04-24T02:33:47.984Z,85.65
2023-04-24T02:36:04.967Z,86.16
2023-04-24T02:38:21.861Z,83.79
2023-04-24T02:40:39.129Z,84.41
2023-04-24T02:42:56.423Z,81.78
2023-04-24T02:45:13.496Z,79.86
2023-04-24T02:47:31.548Z,78.00
2023-04-24T02:49:48.610Z,79.22
2023-04-24T02:52:05.682Z,78.89
2023-04-24T02:54:23.047Z,77.90
2023-04-24T02:56:40.363Z,76.33
2023-04-24T02:58:57.375Z,75.17
2023-04-24T03:01:14.331Z,74.83
2023-04-24T03:03:31.878Z,76.16
2023-04-24T03:05:49.128Z,74.86
2023-04-24T03:08:06.256Z,75.42
2023-04-24T03:10:23.322Z,74.94
2023-04-24T03:12:40.270Z,73.47
2023-04-24T03:14:57.261Z,75.75
2023-04-24T03:17:14.525Z,74.22
2023-04-24T03:19:31.822Z,75.31
2023-04-24T03:21:51.047Z,73.71
2023-04-24T03:24:08.308Z,73.26
2023-04-24T03:26:25.405Z,77.03
2023-04-24T03:28:42.425Z,77.54
2023-04-24T03:30:59.498Z,77.35
2023-04-24T03:33:16.794Z,78.68
2023-04-24T03:35:34.097Z,79.22
2023-04-24T03:37:51.118Z,78.32
2023-04-24T03:40:08.040Z,80.50
2023-04-24T03:42:25.334Z,80.07
2023-04-24T03:44:42.311Z,81.38
2023-04-24T03:46:59.293Z,82.09
2023-04-24T03:49:16.359Z,82.54
2023-04-24T03:51:33.608Z,83.25
2023-04-24T03:53:50.591Z,84.18
2023-04-24T03:56:07.883Z,85.85
2023-04-24T03:58:25.875Z,85.96
2023-04-24T04:00:44.118Z,85.88
2023-04-24T04:03:01.134Z,86.10
2023-04-24T04:05:18.330Z,84.55
2023-04-24T04:07:35.326Z,84.97
2023-04-24T04:09:52.395Z,85.66
2023-04-24T04:12:09.430Z,86.20
2023-04-24T04:14:26.454Z,85.97
2023-04-24T04:16:43.753Z,85.08
2023-04-24T04:19:00.896Z,85.91
2023-04-24T04:21:17.868Z,86.12
2023-04-24T04:23:34.863Z,86.02
2023-04-24T04:25:51.946Z,86.15
2023-04-24T04:28:08.837Z,87.75
2023-04-24T04:30:25.812Z,87.27
2023-04-24T04:32:43.087Z,88.13
2023-04-24T04:35:01.154Z,87.95
2023-04-24T04:37:18.058Z,86.08
2023-04-24T04:39:34.981Z,85.62
2023-04-24T04:41:51.974Z,84.00
2023-04-24T04:44:09.017Z,85.90
2023-04-24T04:46:26.066Z,82.39
2023-04-24T04:48:43.218Z,83.14
2023-04-24T04:51:00.224Z,81.22
2023-04-24T04:53:17.301Z,81.52
2023-04-24T04:55:34.543Z,81.50
2023-04-24T04:57:51.821Z,83.47
2023-04-24T05:00:08.859Z,84.72
2023-04-24T05:02:26.303Z,86.53
2023-04-24T05:04:43.908Z,85.38
2023-04-24T05:07:00.965Z,86.17
2023-04-24T05:09:18.236Z,86.64
2023-04-24T05:11:35.243Z,86.52
2023-04-24T05:13:52.289Z,87.00
2023-04-24T05:16:09.209Z,86.97
2023-04-24T05:18:26.129Z,87.30
2023-04-24T05:20:43.376Z,85.83
2023-04-24T05:23:00.383Z,86.04
2023-04-24T05:25:17.628Z,87.50
2023-04-24T05:27:34.885Z,88.17
2023-04-24T05:29:51.949Z,89.00
2023-04-24T05:32:08.963Z,88.77
2023-04-24T05:34:25.909Z,88.21
2023-04-24T05:36:43.107Z,87.94
2023-04-24T05:39:01.062Z,86.24
2023-04-24T05:41:18.106Z,85.24
2023-04-24T05:43:35.206Z,85.93
2023-04-24T05:45:52.150Z,84.48
2023-04-24T05:48:09.219Z,85.42
2023-04-24T05:50:26.341Z,84.97
2023-04-24T05:52:44.590Z,86.10
2023-04-24T05:55:01.882Z,85.86
2023-04-24T05:57:18.899Z,86.13
2023-04-24T05:59:36.175Z,85.39
2023-04-24T06:01:53.120Z,83.67
2023-04-24T06:04:10.258Z,82.73
2023-04-24T06:06:27.662Z,83.23
2023-04-24T06:08:44.708Z,82.63
2023-04-24T06:11:04.387Z,82.17
2023-04-24T06:13:21.780Z,80.61
2023-04-24T06:15:38.732Z,78.67
2023-04-24T06:17:56.024Z,78.30
2023-04-24T06:20:13.102Z,77.16
2023-04-24T06:22:30.131Z,74.54
2023-04-24T06:24:47.542Z,75.32
2023-04-24T06:27:04.837Z,75.61
2023-04-24T06:29:22.072Z,71.51
2023-04-24T06:31:39.098Z,70.62
2023-04-24T06:33:57.062Z,71.38
2023-04-24T06:36:13.983Z,71.92
2023-04-24T06:38:32.157Z,71.33
2023-04-24T06:40:49.168Z,72.13
2023-04-24T06:43:07.123Z,70.66
2023-04-24T06:45:24.520Z,71.82
2023-04-24T06:47:41.818Z,71.20
2023-04-24T06:49:58.890Z,69.89
2023-04-24T06:52:16.172Z,70.24
2023-04-24T06:54:33.425Z,71.58
2023-04-24T06:56:50.411Z,71.18
2023-04-24T06:59:07.418Z,71.14
2023-04-24T07:01:24.794Z,70.29
2023-04-24T07:03:41.914Z,70.33
2023-04-24T07:05:59.253Z,70.98
2023-04-24T07:08:16.474Z,71.13
2023-04-24T07:10:33.559Z,72.09
2023-04-24T07:12:50.521Z,72.21
2023-04-24T07:15:07.575Z,72.20
2023-04-24T07:17:24.851Z,72.53
2023-04-24T07:19:42.059Z,72.64
2023-04-24T07:21:59.165Z,73.02
2023-04-24T07:24:17.243Z,72.31
2023-04-24T07:26:34.584Z,71.02
2023-04-24T07:28:51.900Z,70.47
2023-04-24T07:31:09.939Z,69.59
2023-04-24T07:33:26.976Z,69.58
2023-04-24T07:35:44.982Z,67.96
2023-04-24T07:38:02.304Z,67.84
2023-04-24T07:40:19.361Z,67.89
2023-04-24T07:42:36.629Z,68.46
2023-04-24T07:44:53.892Z,67.41
2023-04-24T07:47:11.133Z,68.74
2023-04-24T07:49:28.386Z,69.58
2023-04-24T07:51:45.299Z,69.60
2023-04-24T07:54:02.283Z,70.13
2023-04-24T07:56:19.514Z,71.45
2023-04-24T07:58:36.478Z,70.49
2023-04-24T08:00:53.668Z,71.23
2023-04-24T08:03:11.088Z,70.89
2023-04-24T08:05:28.204Z,71.01
2023-04-24T08:07:45.658Z,70.28
2023-04-24T08:10:03.984Z,70.72
2023-04-24T08:12:21.041Z,69.96
2023-04-24T08:14:38.379Z,69.79
2023-04-24T08:16:56.488Z,70.39
2023-04-24T08:19:16.169Z,70.43
2023-04-24T08:21:34.095Z,70.31
2023-04-24T08:23:51.350Z,70.43
2023-04-24T08:26:08.527Z,69.91
2023-04-24T08:28:25.571Z,69.11
2023-04-24T08:30:42.823Z,68.46
2023-04-24T08:32:59.941Z,69.62
2023-04-24T08:35:16.938Z,69.85
2023-04-24T08:37:34.048Z,67.93
2023-04-24T08:39:51.395Z,68.67
2023-04-24T08:42:08.474Z,67.71
2023-04-24T08:44:26.773Z,67.21
2023-04-24T08:46:44.684Z,68.18
2023-04-24T08:49:02.007Z,66.73
2023-04-24T08:51:18.957Z,65.05
2023-04-24T08:53:36.269Z,66.35
2023-04-24T08:55:53.635Z,66.00
2023-04-24T08:58:10.687Z,66.00
2023-04-24T09:00:27.685Z,68.09
2023-04-24T09:02:45.158Z,67.50
2023-04-24T09:05:02.292Z,67.15
2023-04-24T09:07:19.365Z,68.25
2023-04-24T09:09:36.669Z,68.22
2023-04-24T09:11:53.729Z,68.62
2023-04-24T09:14:10.679Z,70.24
2023-04-24T09:16:27.674Z,69.92
2023-04-24T09:18:45.011Z,70.05
2023-04-24T09:21:02.196Z,69.90
2023-04-24T09:23:20.537Z,69.50
2023-04-24T09:25:37.763Z,70.22
2023-04-24T09:27:55.057Z,69.15
2023-04-24T09:30:12.384Z,68.51
2023-04-24T09:32:29.443Z,67.98
2023-04-24T09:34:46.488Z,69.57
2023-04-24T09:37:03.469Z,68.54
2023-04-24T09:39:20.353Z,68.26
2023-04-24T09:41:37.372Z,67.18
2023-04-24T09:43:54.403Z,67.34
2023-04-24T09:46:11.680Z,67.96
2023-04-24T09:48:28.974Z,67.90
2023-04-24T09:50:46.117Z,67.82
2023-04-24T09:53:03.109Z,68.67
2023-04-24T09:55:21.303Z,67.16
2023-04-24T09:57:38.332Z,68.74
2023-04-24T09:59:55.360Z,67.76
2023-04-24T10:02:12.282Z,68.38
2023-04-24T10:04:29.465Z,68.02
2023-04-24T10:06:46.715Z,68.01
2023-04-24T10:09:04.944Z,68.21
2023-04-24T10:11:21.933Z,69.82
2023-04-24T10:13:39.020Z,70.74
2023-04-24T10:15:56.064Z,71.73
2023-04-24T10:18:14.119Z,71.07
2023-04-24T10:20:31.196Z,73.28
2023-04-24T10:22:48.469Z,71.59
2023-04-24T10:25:05.451Z,71.58
2023-04-24T10:27:23.352Z,71.02
2023-04-24T10:29:40.614Z,72.50
2023-04-24T10:31:57.720Z,68.58
2023-04-24T10:34:15.023Z,67.31
2023-04-24T10:36:32.054Z,68.47
2023-04-24T10:38:49.086Z,70.08
2023-04-24T10:41:06.200Z,70.49
2023-04-24T10:43:23.228Z,69.81
2023-04-24T10:45:40.580Z,70.01
2023-04-24T10:47:57.570Z,70.51
2023-04-24T10:50:14.699Z,70.06
2023-04-24T10:52:31.968Z,69.59
2023-04-24T10:54:50.212Z,70.60
2023-04-24T10:57:07.441Z,70.99
2023-04-24T10:59:24.506Z,69.28
2023-04-24T11:01:41.516Z,68.51
2023-04-24T11:03:58.685Z,68.87
2023-04-24T11:06:16.085Z,67.90
2023-04-24T11:08:33.435Z,66.56
2023-04-24T11:10:51.756Z,68.25
2023-04-24T11:13:09.949Z,67.60
2023-04-24T11:15:27.885Z,67.60
2023-04-24T11:17:45.516Z,66.12
2023-04-24T11:20:12.167Z,67.29
2023-04-24T11:22:33.048Z,67.41
2023-04-24T11:24:50.049Z,64.47
2023-04-24T11:27:08.360Z,63.98
2023-04-24T11:29:25.851Z,66.36
2023-04-24T11:31:43.230Z,64.48
2023-04-24T11:34:00.356Z,63.68
2023-04-24T11:36:17.686Z,64.02
2023-04-24T11:38:34.962Z,62.60
2023-04-24T11:40:52.189Z,63.40
2023-04-24T11:43:09.509Z,60.27
2023-04-24T11:45:26.602Z,58.33
2023-04-24T11:47:43.759Z,60.03
2023-04-24T11:50:01.138Z,59.83
2023-04-24T11:52:18.933Z,58.75
2023-04-24T11:54:36.064Z,59.78
2023-04-24T11:56:53.897Z,61.20
2023-04-24T11:59:11.201Z,60.96
2023-04-24T12:01:28.137Z,61.02
2023-04-24T12:03:45.624Z,61.72
2023-04-24T12:06:03.261Z,60.86
2023-04-24T12:08:20.609Z,59.60
2023-04-24T12:10:37.857Z,60.28
2023-04-24T12:12:55.131Z,59.64
2023-04-24T12:15:12.438Z,60.09
2023-04-24T12:17:29.815Z,58.98
2023-04-24T12:19:47.959Z,58.00
2023-04-24T12:22:05.049Z,59.93
2023-04-24T12:24:22.068Z,59.73
2023-04-24T12:26:41.849Z,60.30
2023-04-24T12:29:00.243Z,59.42
2023-04-24T12:31:18.586Z,58.68
2023-04-24T12:33:35.662Z,58.40
2023-04-24T12:35:53.023Z,57.85
2023-04-24T12:38:11.321Z,56.83
2023-04-24T12:40:29.352Z,57.90
2023-04-24T12:42:47.349Z,58.59
2023-04-24T12:45:04.377Z,59.31
2023-04-24T12:47:22.504Z,58.82
2023-04-24T12:49:39.911Z,59.55
2023-04-24T12:51:57.183Z,59.21
2023-04-24T12:54:14.985Z,59.66
2023-04-24T12:56:32.224Z,60.50
2023-04-24T12:58:49.276Z,61.00
2023-04-24T13:01:06.346Z,63.03
2023-04-24T13:03:23.998Z,61.61
2023-04-24T13:05:41.383Z,60.81
2023-04-24T13:07:59.466Z,62.67
2023-04-24T13:10:16.562Z,61.35
2023-04-24T13:12:33.603Z,62.03
2023-04-24T13:14:50.797Z,61.62
2023-04-24T13:17:07.840Z,60.54
2023-04-24T13:19:24.774Z,59.69
2023-04-24T13:21:42.042Z,60.99
2023-04-24T13:23:59.112Z,61.25
2023-04-24T13:26:16.474Z,60.61
2023-04-24T13:28:33.465Z,62.70
2023-04-24T13:30:52.215Z,62.32
2023-04-24T13:33:09.564Z,64.85
2023-04-24T13:35:26.920Z,64.52
2023-04-24T13:37:44.001Z,65.06
2023-04-24T13:40:01.290Z,65.76
2023-04-24T13:42:18.532Z,64.41
2023-04-24T13:44:35.587Z,63.91
2023-04-24T13:46:52.506Z,65.81
2023-04-24T13:49:09.569Z,64.17
2023-04-24T13:51:27.379Z,64.29
2023-04-24T13:53:44.682Z,62.19
2023-04-24T13:56:03.028Z,63.49
2023-04-24T13:58:20.299Z,62.53
2023-04-24T14:00:37.668Z,63.00
2023-04-24T14:02:54.871Z,62.85
2023-04-24T14:05:13.205Z,63.21
2023-04-24T14:07:30.498Z,61.90
2023-04-24T14:09:47.490Z,62.13
2023-04-24T14:12:04.855Z,60.00
2023-04-24T14:14:21.898Z,62.76
2023-04-24T14:16:39.036Z,63.10
2023-04-24T14:18:56.053Z,62.47
2023-04-24T14:21:13.979Z,60.95
2023-04-24T14:23:31.237Z,61.25
2023-04-24T14:25:48.505Z,58.75
2023-04-24T14:28:05.740Z,59.79
2023-04-24T14:30:22.820Z,57.46
2023-04-24T14:32:40.162Z,57.07
2023-04-24T14:34:58.255Z,57.48
2023-04-24T14:37:15.583Z,56.70
2023-04-24T14:39:32.660Z,56.71
2023-04-24T14:41:50.002Z,53.41
2023-04-24T14:44:06.993Z,54.94
2023-04-24T14:46:23.969Z,54.24
2023-04-24T14:48:42.037Z,54.19
2023-04-24T14:50:59.333Z,55.06
2023-04-24T14:53:16.340Z,56.08
2023-04-24T14:55:33.311Z,55.60
2023-04-24T14:57:51.568Z,56.34
2023-04-24T15:00:08.493Z,55.05
2023-04-24T15:02:25.913Z,54.94
2023-04-24T15:04:43.219Z,58.36
2023-04-24T15:07:00.380Z,57.13
2023-04-24T15:09:17.396Z,55.45
2023-04-24T15:11:34.661Z,56.05
2023-04-24T15:13:51.667Z,54.88
2023-04-24T15:16:09.008Z,51.00
2023-04-24T15:18:26.037Z,52.06
2023-04-24T15:20:43.129Z,51.56
2023-04-24T15:23:00.710Z,52.12
2023-04-24T15:25:17.717Z,54.40
2023-04-24T15:27:34.975Z,56.57
2023-04-24T15:29:51.966Z,57.23
2023-04-24T15:32:10.413Z,57.39
2023-04-24T15:34:27.664Z,56.88
2023-04-24T15:36:44.721Z,58.10
2023-04-24T15:39:04.315Z,59.53
2023-04-24T15:41:21.896Z,59.52
2023-04-24T15:43:38.948Z,61.48
2023-04-24T15:45:55.999Z,60.43
2023-04-24T15:48:13.046Z,62.02
2023-04-24T15:50:30.045Z,62.78
2023-04-24T15:52:47.063Z,64.49
2023-04-24T15:55:04.344Z,65.51
2023-04-24T15:57:21.589Z,65.45
2023-04-24T15:59:38.600Z,66.97
2023-04-24T16:01:55.927Z,67.35
2023-04-24T16:04:13.145Z,69.00
2023-04-24T16:06:30.481Z,68.98
2023-04-24T16:08:48.759Z,69.06
2023-04-24T16:11:06.186Z,68.41
2023-04-24T16:13:23.083Z,70.35
2023-04-24T16:15:40.245Z,71.91
2023-04-24T16:17:58.318Z,72.37
2023-04-24T16:20:15.690Z,73.19
2023-04-24T16:22:32.809Z,74.45
2023-04-24T16:24:50.661Z,75.58
2023-04-24T16:27:07.693Z,76.19
2023-04-24T16:29:25.630Z,76.90
2023-04-24T16:31:42.645Z,76.47
2023-04-24T16:33:59.708Z,78.37
2023-04-24T16:36:16.760Z,77.36
2023-04-24T16:38:34.995Z,77.34
2023-04-24T16:40:52.310Z,76.45
2023-04-24T16:43:09.616Z,77.32
2023-04-24T16:45:27.622Z,77.69
2023-04-24T16:47:44.964Z,78.08
2023-04-24T16:50:01.976Z,77.80
2023-04-24T16:52:19.012Z,77.93
2023-04-24T16:54:37.028Z,77.99
2023-04-24T16:56:54.086Z,77.60
2023-04-24T16:59:11.035Z,77.50
2023-04-24T17:01:28.398Z,78.76
2023-04-24T17:03:46.575Z,78.70
2023-04-24T17:06:03.717Z,78.93
2023-04-24T17:08:20.761Z,76.40
2023-04-24T17:10:37.772Z,76.58
2023-04-24T17:12:54.800Z,77.46
2023-04-24T17:15:12.082Z,76.36
2023-04-24T17:17:29.081Z,77.35
2023-04-24T17:19:46.113Z,79.72
2023-04-24T17:22:06.090Z,79.91
2023-04-24T17:24:23.590Z,79.61
2023-04-24T17:26:40.587Z,79.83
2023-04-24T17:28:57.861Z,79.00
2023-04-24T17:31:14.858Z,78.23
2023-04-24T17:33:31.930Z,78.77
2023-04-24T17:35:49.175Z,77.95
2023-04-24T17:38:06.102Z,78.18
2023-04-24T17:40:23.373Z,78.89
2023-04-24T17:42:40.782Z,78.88
2023-04-24T17:44:58.710Z,79.68
2023-04-24T17:47:15.990Z,79.46
2023-04-24T17:49:33.256Z,80.09
2023-04-24T17:51:51.450Z,79.65
2023-04-24T17:54:08.478Z,80.13
2023-04-24T17:56:25.514Z,79.41
2023-04-24T17:58:42.558Z,79.20
2023-04-24T18:01:00.257Z,79.12
2023-04-24T18:03:17.648Z,78.70
2023-04-24T18:05:34.622Z,79.54
2023-04-24T18:07:51.605Z,79.27
2023-04-24T18:10:08.914Z,79.43
2023-04-24T18:12:25.972Z,79.15
2023-04-24T18:14:43.927Z,79.40
2023-04-24T18:17:00.998Z,79.40
2023-04-24T18:19:18.332Z,79.61
2023-04-24T18:21:35.421Z,80.96
2023-04-24T18:23:52.402Z,81.72
2023-04-24T18:26:09.635Z,82.37
2023-04-24T18:28:26.598Z,83.97
2023-04-24T18:30:43.817Z,83.80
2023-04-24T18:33:01.082Z,83.78
2023-04-24T18:35:18.492Z,84.63
2023-04-24T18:37:36.338Z,83.50
2023-04-24T18:39:53.335Z,84.08
2023-04-24T18:42:10.339Z,84.42
2023-04-24T18:44:27.327Z,85.14
2023-04-24T18:46:44.640Z,84.52
2023-04-24T18:49:02.883Z,85.31
2023-04-24T18:51:20.866Z,85.39
2023-04-24T18:53:37.900Z,85.74
2023-04-24T18:55:55.143Z,86.08
2023-04-24T18:58:12.142Z,87.08
2023-04-24T19:00:29.135Z,86.42
2023-04-24T19:02:46.590Z,87.83
2023-04-24T19:05:03.952Z,88.37
2023-04-24T19:07:21.223Z,88.63
2023-04-24T19:09:38.589Z,87.71
2023-04-24T19:11:56.554Z,87.41
2023-04-24T19:14:13.616Z,88.07
2023-04-24T19:16:30.720Z,87.54
2023-04-24T19:18:49.052Z,88.12
2023-04-24T19:21:06.303Z,89.23
2023-04-24T19:23:23.652Z,88.86
2023-04-24T19:25:40.892Z,88.59
2023-04-24T19:27:57.917Z,87.53
2023-04-24T19:30:14.941Z,88.21
2023-04-24T19:32:32.317Z,88.40
2023-04-24T19:34:49.672Z,83.10
2023-04-24T19:37:06.711Z,81.06
2023-04-24T19:39:23.791Z,78.27
2023-04-24T19:41:41.105Z,78.98
2023-04-24T19:43:59.348Z,77.23
2023-04-24T19:46:16.338Z,77.18
2023-04-24T19:48:33.376Z,77.83
2023-04-24T19:50:50.445Z,78.72
2023-04-24T19:53:07.484Z,76.79
2023-04-24T19:55:24.778Z,78.97
2023-04-24T19:57:41.788Z,77.92
2023-04-24T19:59:59.097Z,79.10
2023-04-24T20:02:16.154Z,78.01
2023-04-24T20:04:33.375Z,78.26
2023-04-24T20:06:50.513Z,78.90
2023-04-24T20:09:07.447Z,81.30
2023-04-24T20:11:24.468Z,81.90
2023-04-24T20:13:42.402Z,82.57
2023-04-24T20:15:59.651Z,83.12
2023-04-24T20:18:18.004Z,83.42
2023-04-24T20:20:35.387Z,83.07
2023-04-24T20:22:53.246Z,83.54
2023-04-24T20:25:10.286Z,83.73
2023-04-24T20:27:28.516Z,83.62
2023-04-24T20:29:45.777Z,82.12
2023-04-24T20:32:02.720Z,84.61
2023-04-24T20:34:19.728Z,83.33
2023-04-24T20:36:36.712Z,83.78
2023-04-24T20:38:54.897Z,83.06
2023-04-24T20:41:12.162Z,83.92
2023-04-24T20:43:29.563Z,84.22
2023-04-24T20:45:46.708Z,82.43
2023-04-24T20:48:03.743Z,82.99
2023-04-24T20:50:21.074Z,85.31
2023-04-24T20:52:38.063Z,85.96
2023-04-24T20:54:55.212Z,86.04
2023-04-24T20:57:12.174Z,86.78
2023-04-24T20:59:29.280Z,87.10
2023-04-24T21:01:46.318Z,87.42
2023-04-24T21:04:03.416Z,86.91
2023-04-24T21:06:20.654Z,87.44
2023-04-24T21:08:37.901Z,87.87
2023-04-24T21:10:55.201Z,88.44
2023-04-24T21:13:12.529Z,88.50
2023-04-24T21:15:29.821Z,88.60
2023-04-24T21:17:47.869Z,87.81
2023-04-24T21:20:05.148Z,88.45
2023-04-24T21:22:22.279Z,89.30
2023-04-24T21:24:39.243Z,88.52
2023-04-24T21:26:56.538Z,87.72
2023-04-24T21:29:13.440Z,87.28
2023-04-24T21:31:30.560Z,87.94
2023-04-24T21:33:48.089Z,88.14
2023-04-24T21:36:05.410Z,89.50
2023-04-24T21:38:22.358Z,89.30
2023-04-24T21:40:39.452Z,88.99
2023-04-24T21:42:56.383Z,90.40
2023-04-24T21:45:13.407Z,90.33
2023-04-24T21:47:30.368Z,89.63
2023-04-24T21:49:47.488Z,91.11
2023-04-24T21:52:05.415Z,90.29
2023-04-24T21:54:22.507Z,91.25
2023-04-24T21:56:39.821Z,91.11
2023-04-24T21:58:56.878Z,90.49
2023-04-24T22:01:14.214Z,91.16
2023-04-24T22:03:31.498Z,90.17
2023-04-24T22:05:49.037Z,90.54
2023-04-24T22:08:06.381Z,90.92
2023-04-24T22:10:23.302Z,91.75
2023-04-24T22:12:40.245Z,90.97
2023-04-24T22:14:57.322Z,91.11
2023-04-24T22:17:14.464Z,91.71
2023-04-24T22:19:31.751Z,91.17
2023-04-24T22:21:49.163Z,91.13
2023-04-24T22:24:06.146Z,91.47
2023-04-24T22:26:23.435Z,91.79
2023-04-24T22:28:40.695Z,91.75
2023-04-24T22:30:57.739Z,91.79
2023-04-24T22:33:15.067Z,91.21
2023-04-24T22:35:32.383Z,91.82
2023-04-24T22:37:50.641Z,91.41
2023-04-24T22:40:10.183Z,90.74
2023-04-24T22:42:27.614Z,90.80
2023-04-24T22:44:44.890Z,92.19
2023-04-24T22:47:01.830Z,91.17
2023-04-24T22:49:18.931Z,92.14
2023-04-24T22:51:37.115Z,91.83
2023-04-24T22:53:54.086Z,91.90
2023-04-24T22:56:11.019Z,92.74
2023-04-24T22:58:28.328Z,92.48
2023-04-24T23:00:45.576Z,91.91
2023-04-24T23:03:03.014Z,91.93
2023-04-24T23:05:20.244Z,92.98
2023-04-24T23:07:37.212Z,91.74
2023-04-24T23:09:55.978Z,92.16
2023-04-24T23:12:12.977Z,91.95
2023-04-24T23:14:30.258Z,92.35
2023-04-24T23:16:47.607Z,93.52
2023-04-24T23:19:04.659Z,92.50
2023-04-24T23:21:21.727Z,92.84
2023-04-24T23:23:38.850Z,92.15
2023-04-24T23:25:55.932Z,92.30
2023-04-24T23:28:12.956Z,91.83
2023-04-24T23:30:31.518Z,92.60
2023-04-24T23:32:48.804Z,92.00
2023-04-24T23:35:05.886Z,92.14
2023-04-24T23:37:22.978Z,92.35
2023-04-24T23:39:40.065Z,93.81
2023-04-24T23:41:56.916Z,94.06
2023-04-24T23:44:14.165Z,94.10
2023-04-24T23:46:31.279Z,93.09
2023-04-24T23:48:48.396Z,92.72
2023-04-24T23:51:05.503Z,92.40
2023-04-24T23:53:22.920Z,92.99
2023-04-24T23:55:40.079Z,91.22
2023-04-24T23:57:57.062Z,91.81
